Time;durP1;ratioP1;P1;durP2;ratioP2;P2;SDS_P1;SDS_P2;PMS_P1;PMS_P2;Temp;Humidity;BMP_temperature;BMP_pressure;BME280_temperature;BME280_humidity;BME280_pressure;Samples;Min_cycle;Max_cycle;Signal;HPM_P1;HPM_P2
2022/07/09 00:00:59;;;;;;;19.40;14.70;;;20.30;78.00;;;;;;4986274;28;20856;-89
2022/07/09 00:03:25;;;;;;;17.50;14.00;;;20.30;78.10;;;;;;5001581;28;20178;-90
2022/07/09 00:05:51;;;;;;;20.40;16.43;;;20.20;78.20;;;;;;4999994;28;20565;-89
2022/07/09 00:08:16;;;;;;;20.60;15.87;;;20.20;78.30;;;;;;5001749;28;20191;-89
2022/07/09 00:10:42;;;;;;;18.27;15.37;;;20.20;78.50;;;;;;5001060;28;20624;-90
2022/07/09 00:13:08;;;;;;;15.27;12.43;;;20.20;78.70;;;;;;5000345;28;20187;-90
2022/07/09 00:15:33;;;;;;;19.40;14.57;;;20.20;78.70;;;;;;5001672;28;20174;-89
2022/07/09 00:17:59;;;;;;;16.30;14.40;;;20.20;78.80;;;;;;5000631;28;20207;-90
2022/07/09 00:20:25;;;;;;;17.27;14.50;;;20.10;79.00;;;;;;5003267;28;20176;-89
2022/07/09 00:22:51;;;;;;;12.63;9.47;;;20.20;78.70;;;;;;5012559;28;20171;-87
2022/07/09 00:25:16;;;;;;;16.00;11.40;;;20.20;77.90;;;;;;5010206;28;20187;-89
2022/07/09 00:27:42;;;;;;;14.60;10.47;;;20.20;77.60;;;;;;4999987;28;21025;-90
2022/07/09 00:30:08;;;;;;;12.27;9.80;;;20.10;77.80;;;;;;4999355;28;20187;-90
2022/07/09 00:32:34;;;;;;;14.20;10.43;;;20.10;78.00;;;;;;4999194;28;20271;-89
2022/07/09 00:34:59;;;;;;;12.07;9.90;;;20.10;78.00;;;;;;5000178;28;20871;-89
2022/07/09 00:37:25;;;;;;;14.73;10.87;;;20.10;78.00;;;;;;4982455;28;20326;-89
2022/07/09 00:39:51;;;;;;;11.90;10.60;;;20.00;77.80;;;;;;4992879;28;20240;-87
2022/07/09 00:42:17;;;;;;;16.07;11.13;;;20.00;78.00;;;;;;4996244;28;20183;-90
2022/07/09 00:44:43;;;;;;;9.77;8.80;;;20.00;78.20;;;;;;4981468;28;20190;-89
2022/07/09 00:47:14;;;;;;;10.97;9.83;;;20.00;78.40;;;;;;4980316;28;20458;-90
2022/07/09 00:49:41;;;;;;;12.50;9.90;;;19.90;78.90;;;;;;4993908;28;20172;-88
2022/07/09 00:52:13;;;;;;;14.48;10.50;;;19.80;78.70;;;;;;4998045;28;20511;-88
2022/07/09 00:54:41;;;;;;;16.85;10.73;;;19.80;79.10;;;;;;4998239;28;20191;-87
2022/07/09 00:57:08;;;;;;;15.27;10.57;;;19.80;79.10;;;;;;4983317;28;20303;-89
2022/07/09 00:59:35;;;;;;;10.25;9.00;;;19.80;78.60;;;;;;4977190;28;20567;-89
2022/07/09 01:02:01;;;;;;;14.95;9.80;;;19.80;78.60;;;;;;4983506;28;20179;-89
2022/07/09 01:04:27;;;;;;;11.40;10.17;;;19.80;78.60;;;;;;4996650;28;20197;-89
2022/07/09 01:06:53;;;;;;;11.50;10.30;;;19.90;78.80;;;;;;4996364;28;20414;-89
2022/07/09 01:09:18;;;;;;;12.10;10.27;;;19.80;78.90;;;;;;4996515;28;20198;-89
2022/07/09 01:11:46;;;;;;;11.90;9.67;;;19.80;79.00;;;;;;4988254;28;20671;-89
2022/07/09 01:14:12;;;;;;;13.70;10.80;;;19.80;79.10;;;;;;4976863;28;20242;-89
2022/07/09 01:16:38;;;;;;;12.65;10.40;;;19.80;78.80;;;;;;4977827;28;20454;-88
2022/07/09 01:19:04;;;;;;;12.77;10.20;;;19.80;79.00;;;;;;4976522;28;20262;-89
2022/07/09 01:21:30;;;;;;;15.15;11.45;;;19.70;79.00;;;;;;4976594;28;20175;-89
2022/07/09 01:23:56;;;;;;;14.20;12.15;;;19.60;79.10;;;;;;4978997;28;20191;-90
2022/07/09 01:26:23;;;;;;;15.83;11.00;;;19.60;79.30;;;;;;4976633;28;20175;-90
2022/07/09 01:28:49;;;;;;;15.18;11.27;;;19.60;79.20;;;;;;4976565;28;20196;-89
2022/07/09 01:31:16;;;;;;;18.37;14.23;;;19.60;79.20;;;;;;4977054;28;20184;-89
2022/07/09 01:33:41;;;;;;;16.67;13.70;;;19.60;79.70;;;;;;4977817;28;20412;-87
2022/07/09 01:36:08;;;;;;;18.60;16.17;;;19.60;79.70;;;;;;4978606;28;20549;-89
2022/07/09 01:38:34;;;;;;;21.83;17.45;;;19.50;80.40;;;;;;4976984;28;20306;-89
2022/07/09 01:40:59;;;;;;;17.33;14.73;;;19.50;81.20;;;;;;4977460;28;20222;-90
2022/07/09 01:43:25;;;;;;;21.93;17.23;;;19.50;81.10;;;;;;4977437;28;20453;-90
2022/07/09 01:45:51;;;;;;;20.00;17.20;;;19.50;81.50;;;;;;4978400;28;20706;-89
2022/07/09 01:48:17;;;;;;;18.05;16.10;;;19.50;81.20;;;;;;4977473;28;21145;-89
2022/07/09 01:50:43;;;;;;;24.43;19.40;;;19.50;81.30;;;;;;4998292;28;20175;-88
2022/07/09 01:53:09;;;;;;;18.10;15.60;;;19.50;81.60;;;;;;4996857;28;20414;-89
2022/07/09 01:55:35;;;;;;;23.42;18.38;;;19.40;81.90;;;;;;4997366;28;20933;-89
2022/07/09 01:58:01;;;;;;;23.58;18.75;;;19.40;82.70;;;;;;4997596;28;20214;-89
2022/07/09 02:00:28;;;;;;;22.80;17.27;;;19.40;82.00;;;;;;4996698;28;20179;-89
2022/07/09 02:02:55;;;;;;;23.00;17.73;;;19.40;82.40;;;;;;4982467;28;20435;-89
2022/07/09 02:05:21;;;;;;;19.65;17.65;;;19.40;82.50;;;;;;4978482;28;20176;-89
2022/07/09 02:07:47;;;;;;;22.10;19.70;;;19.40;82.30;;;;;;4976527;28;20235;-88
2022/07/09 02:10:12;;;;;;;33.93;24.60;;;19.30;82.70;;;;;;4975922;28;20215;-89
2022/07/09 02:12:38;;;;;;;33.40;26.03;;;19.30;83.30;;;;;;4975710;28;20643;-88
2022/07/09 02:15:05;;;;;;;34.63;26.60;;;19.30;83.60;;;;;;4975924;28;20419;-89
2022/07/09 02:17:32;;;;;;;37.75;26.17;;;19.30;83.80;;;;;;4975384;28;20784;-89
2022/07/09 02:19:57;;;;;;;39.13;25.55;;;19.30;83.90;;;;;;4976392;28;20208;-88
2022/07/09 02:22:23;;;;;;;30.10;24.47;;;19.30;83.90;;;;;;4976390;28;20576;-88
2022/07/09 02:24:49;;;;;;;34.80;24.17;;;19.30;83.90;;;;;;4976186;28;20669;-88
2022/07/09 02:27:15;;;;;;;35.77;26.20;;;19.30;83.90;;;;;;4976534;28;20186;-89
2022/07/09 02:29:40;;;;;;;30.67;26.13;;;19.20;83.90;;;;;;4992967;28;20195;-88
2022/07/09 02:32:06;;;;;;;37.70;25.80;;;19.20;83.90;;;;;;4989712;28;20196;-88
2022/07/09 02:34:32;;;;;;;39.28;25.17;;;19.20;84.20;;;;;;4976220;28;20284;-89
2022/07/09 02:36:58;;;;;;;30.37;25.33;;;19.20;84.40;;;;;;4988455;28;20292;-89
2022/07/09 02:39:24;;;;;;;35.20;25.90;;;19.20;84.40;;;;;;4995610;28;20214;-88
2022/07/09 02:41:50;;;;;;;36.80;25.63;;;19.20;84.60;;;;;;4995879;28;20179;-89
2022/07/09 02:44:16;;;;;;;33.85;25.60;;;19.20;84.70;;;;;;4997386;28;20170;-89
2022/07/09 02:46:41;;;;;;;33.00;24.13;;;19.20;84.90;;;;;;4995215;28;20202;-89
2022/07/09 02:49:07;;;;;;;28.33;24.10;;;19.10;85.10;;;;;;4989468;28;20195;-90
2022/07/09 02:51:33;;;;;;;35.97;26.97;;;19.20;85.30;;;;;;4975814;28;20612;-89
2022/07/09 02:53:58;;;;;;;36.17;26.23;;;19.20;85.50;;;;;;4975813;28;20222;-89
2022/07/09 02:56:24;;;;;;;29.00;24.00;;;19.20;85.50;;;;;;4975869;28;20176;-88
2022/07/09 02:58:50;;;;;;;34.87;25.23;;;19.20;85.40;;;;;;4976436;28;20204;-89
2022/07/09 03:01:15;;;;;;;27.17;22.47;;;19.20;85.30;;;;;;4975994;28;20191;-89
2022/07/09 03:03:41;;;;;;;29.10;24.30;;;19.30;85.30;;;;;;4995703;28;20233;-89
2022/07/09 03:06:08;;;;;;;31.63;23.40;;;19.30;85.20;;;;;;4995138;28;20190;-89
2022/07/09 03:08:34;;;;;;;30.60;23.75;;;19.40;85.00;;;;;;4994852;28;20675;-89
2022/07/09 03:11:09;;;;;;;32.27;24.10;;;19.40;84.70;;;;;;4994867;28;20187;-89
2022/07/09 03:13:35;;;;;;;26.95;22.52;;;19.40;84.50;;;;;;4996527;28;20394;-89
2022/07/09 03:16:04;;;;;;;22.60;20.15;;;19.40;84.20;;;;;;4994936;28;20422;-89
2022/07/09 03:18:30;;;;;;;25.23;20.92;;;19.40;83.80;;;;;;4978415;28;20222;-89
2022/07/09 03:20:56;;;;;;;21.83;18.67;;;19.40;83.30;;;;;;4994789;28;20183;-89
2022/07/09 03:23:22;;;;;;;22.90;19.33;;;19.40;83.00;;;;;;4994377;28;20179;-88
2022/07/09 03:25:48;;;;;;;22.63;20.02;;;19.40;82.90;;;;;;4994033;28;20245;-89
2022/07/09 03:28:14;;;;;;;22.27;18.90;;;19.40;82.80;;;;;;4994300;28;20686;-89
2022/07/09 03:30:39;;;;;;;19.03;17.00;;;19.40;82.70;;;;;;4994060;28;20597;-88
2022/07/09 03:33:05;;;;;;;19.40;17.30;;;19.40;82.40;;;;;;4994381;28;20205;-89
2022/07/09 03:35:31;;;;;;;17.40;15.53;;;19.40;82.40;;;;;;4994216;28;20240;-88
2022/07/09 03:37:56;;;;;;;23.20;18.00;;;19.40;82.20;;;;;;4994026;28;20223;-90
2022/07/09 03:40:22;;;;;;;23.00;17.00;;;19.40;82.00;;;;;;4994672;28;20329;-89
2022/07/09 03:42:48;;;;;;;20.63;16.00;;;19.40;81.90;;;;;;4994652;28;20664;-89
2022/07/09 03:45:14;;;;;;;21.00;15.83;;;19.40;81.80;;;;;;4995696;28;20187;-89
2022/07/09 03:47:48;;;;;;;19.83;16.57;;;19.30;81.70;;;;;;4994480;28;20450;-89
2022/07/09 03:50:14;;;;;;;24.77;18.58;;;19.30;81.50;;;;;;4996417;28;20686;-89
2022/07/09 03:52:39;;;;;;;21.77;17.47;;;19.30;81.60;;;;;;4996318;28;20191;-89
2022/07/09 03:55:06;;;;;;;21.33;17.20;;;19.30;81.60;;;;;;4995102;28;20799;-89
2022/07/09 03:57:32;;;;;;;21.52;16.48;;;19.30;81.60;;;;;;4996006;28;20679;-89
2022/07/09 03:59:58;;;;;;;24.23;17.25;;;19.30;81.60;;;;;;4995518;28;20275;-90
2022/07/09 04:02:23;;;;;;;18.53;16.37;;;19.30;81.50;;;;;;4994804;28;20637;-89
2022/07/09 04:04:49;;;;;;;21.90;17.37;;;19.30;81.40;;;;;;4995435;28;20233;-89
2022/07/09 04:07:15;;;;;;;21.55;18.23;;;19.30;81.40;;;;;;4994884;28;20237;-89
2022/07/09 04:09:41;;;;;;;30.60;20.13;;;19.40;81.50;;;;;;4995643;28;20590;-88
2022/07/09 04:12:07;;;;;;;27.50;19.43;;;19.40;81.40;;;;;;4995962;28;20249;-89
2022/07/09 04:14:33;;;;;;;20.10;18.10;;;19.40;81.40;;;;;;4995797;28;20426;-90
2022/07/09 04:16:59;;;;;;;23.50;20.50;;;19.40;81.10;;;;;;4996889;28;20213;-88
2022/07/09 04:19:24;;;;;;;20.60;18.60;;;19.50;80.80;;;;;;5004755;28;20191;-89
2022/07/09 04:21:50;;;;;;;26.87;19.30;;;19.50;80.30;;;;;;5013049;28;20191;-89
2022/07/09 04:24:16;;;;;;;28.97;22.17;;;19.50;80.30;;;;;;4998198;28;20219;-89
2022/07/09 04:26:43;;;;;;;26.70;23.50;;;19.50;80.60;;;;;;4999323;28;20187;-89
2022/07/09 04:29:10;;;;;;;34.67;23.80;;;19.50;81.00;;;;;;4997853;28;20297;-90
2022/07/09 04:31:36;;;;;;;29.20;22.88;;;19.50;81.10;;;;;;4981662;28;20191;-89
2022/07/09 04:34:01;;;;;;;29.10;23.60;;;19.50;81.10;;;;;;4995339;28;20190;-89
2022/07/09 04:36:28;;;;;;;24.60;21.63;;;19.50;81.10;;;;;;4995242;28;20179;-89
2022/07/09 04:38:55;;;;;;;28.48;24.63;;;19.50;81.10;;;;;;4994528;28;20218;-89
2022/07/09 04:41:21;;;;;;;26.63;23.05;;;19.50;81.20;;;;;;4996515;28;20190;-90
2022/07/09 04:43:47;;;;;;;24.57;21.97;;;19.50;81.10;;;;;;5000049;28;20172;-90
2022/07/09 04:46:13;;;;;;;26.03;20.83;;;19.60;80.80;;;;;;4983047;28;20418;-89
2022/07/09 04:48:40;;;;;;;20.17;17.85;;;19.70;80.60;;;;;;4998789;28;20195;-90
2022/07/09 04:51:05;;;;;;;21.15;18.90;;;19.70;80.40;;;;;;5001684;28;20183;-88
2022/07/09 04:53:31;;;;;;;25.53;19.87;;;19.80;80.20;;;;;;5008287;28;20199;-88
2022/07/09 04:55:57;;;;;;;24.93;19.43;;;19.80;80.00;;;;;;5009754;28;20183;-88
2022/07/09 04:58:22;;;;;;;19.73;16.40;;;20.10;78.80;;;;;;5009251;28;20211;-88
2022/07/09 05:00:48;;;;;;;23.27;18.17;;;20.20;78.10;;;;;;5007076;28;20185;-88
2022/07/09 05:03:14;;;;;;;22.83;16.90;;;20.20;77.90;;;;;;5002134;28;20214;-89
2022/07/09 05:05:39;;;;;;;20.40;16.97;;;20.20;77.50;;;;;;5006396;28;20422;-88
2022/07/09 05:08:06;;;;;;;20.37;16.73;;;20.30;77.40;;;;;;5002131;28;20211;-89
2022/07/09 05:10:31;;;;;;;18.00;13.50;;;20.30;76.80;;;;;;4980106;28;20648;-88
2022/07/09 05:12:57;;;;;;;14.63;12.47;;;20.40;76.30;;;;;;4997091;28;20426;-88
2022/07/09 05:15:23;;;;;;;12.77;11.40;;;20.50;76.00;;;;;;4995931;28;20183;-89
2022/07/09 05:17:48;;;;;;;14.00;12.53;;;20.60;75.20;;;;;;4994790;28;20684;-88
2022/07/09 05:20:14;;;;;;;14.83;10.93;;;20.70;74.80;;;;;;4995032;28;20183;-88
2022/07/09 05:22:40;;;;;;;12.33;11.10;;;20.80;74.00;;;;;;4995710;28;20266;-90
2022/07/09 05:25:06;;;;;;;12.30;11.10;;;20.90;73.50;;;;;;4997342;28;20667;-90
2022/07/09 05:27:32;;;;;;;16.97;12.03;;;21.20;73.00;;;;;;4998335;28;20183;-90
2022/07/09 05:29:58;;;;;;;14.40;11.50;;;21.90;70.60;;;;;;4996940;28;20429;-90
2022/07/09 05:32:24;;;;;;;12.90;11.17;;;22.80;67.00;;;;;;4998134;28;20484;-90
2022/07/09 05:34:49;;;;;;;11.30;10.20;;;23.60;64.00;;;;;;4996772;28;20422;-88
2022/07/09 05:37:15;;;;;;;14.23;9.20;;;24.30;61.30;;;;;;4994370;28;20195;-88
2022/07/09 05:39:41;;;;;;;14.33;10.57;;;25.10;58.50;;;;;;4990463;28;20190;-88
2022/07/09 05:42:06;;;;;;;17.13;11.20;;;25.60;55.80;;;;;;4988097;28;20194;-90
2022/07/09 05:44:32;;;;;;;11.63;10.43;;;25.70;54.60;;;;;;4978018;28;20182;-90
2022/07/09 05:46:58;;;;;;;14.10;10.20;;;25.50;54.80;;;;;;4976780;28;20652;-87
2022/07/09 05:49:25;;;;;;;12.03;10.70;;;25.00;55.90;;;;;;4976950;28;20201;-87
2022/07/09 05:51:51;;;;;;;15.60;12.00;;;24.60;57.40;;;;;;4976758;28;20433;-88
2022/07/09 05:54:16;;;;;;;14.23;11.30;;;24.20;58.70;;;;;;4976397;28;20503;-88
2022/07/09 05:56:42;;;;;;;12.87;11.17;;;23.80;60.30;;;;;;4976764;28;20716;-89
2022/07/09 05:59:08;;;;;;;17.37;11.43;;;23.50;61.20;;;;;;4976943;28;20226;-90
2022/07/09 06:01:39;;;;;;;16.50;12.10;;;23.20;62.00;;;;;;4960389;28;20180;-89
2022/07/09 06:04:07;;;;;;;10.50;8.73;;;23.30;62.80;;;;;;4977954;28;20400;-89
2022/07/09 06:06:33;;;;;;;9.77;8.03;;;23.90;62.20;;;;;;4976661;28;20869;-89
2022/07/09 06:08:58;;;;;;;13.10;10.90;;;24.40;60.20;;;;;;4982249;28;20467;-88
2022/07/09 06:11:24;;;;;;;15.47;10.50;;;24.90;58.20;;;;;;4999111;28;20446;-88
2022/07/09 06:13:50;;;;;;;10.97;9.97;;;25.00;56.30;;;;;;4978447;28;20191;-89
2022/07/09 06:16:15;;;;;;;12.60;9.07;;;25.00;55.80;;;;;;4976101;28;20243;-88
2022/07/09 06:18:41;;;;;;;12.40;9.30;;;24.80;56.30;;;;;;4977689;28;20224;-89
2022/07/09 06:21:07;;;;;;;13.80;10.00;;;24.70;56.50;;;;;;4978568;28;20184;-89
2022/07/09 06:23:32;;;;;;;10.10;9.10;;;24.70;56.80;;;;;;4977861;28;20260;-89
2022/07/09 06:25:58;;;;;;;13.10;8.93;;;24.40;56.70;;;;;;4979052;28;20190;-88
2022/07/09 06:28:24;;;;;;;14.10;9.03;;;23.90;57.00;;;;;;4977404;28;20201;-88
2022/07/09 06:30:49;;;;;;;12.60;9.77;;;23.60;57.60;;;;;;4982988;28;20196;-91
2022/07/09 06:33:15;;;;;;;14.57;10.47;;;23.30;58.00;;;;;;4983452;28;20524;-89
2022/07/09 06:35:41;;;;;;;13.10;10.70;;;23.20;58.70;;;;;;4984112;28;20180;-88
2022/07/09 06:38:06;;;;;;;14.07;11.30;;;23.10;59.60;;;;;;4990362;28;20220;-89
2022/07/09 06:40:33;;;;;;;12.87;10.77;;;22.90;60.00;;;;;;4987234;28;20188;-89
2022/07/09 06:43:04;;;;;;;20.00;12.20;;;22.80;60.60;;;;;;4979483;28;20649;-88
2022/07/09 06:45:29;;;;;;;12.30;11.10;;;22.60;61.30;;;;;;4976537;28;20411;-88
2022/07/09 06:47:55;;;;;;;18.50;14.00;;;22.60;61.60;;;;;;4976488;28;20454;-88
2022/07/09 06:50:21;;;;;;;13.90;12.03;;;22.60;61.40;;;;;;4977032;28;20175;-88
2022/07/09 06:52:46;;;;;;;14.43;12.13;;;22.90;61.50;;;;;;4977859;28;20176;-89
2022/07/09 06:55:12;;;;;;;15.47;13.30;;;22.90;61.20;;;;;;4977071;28;20175;-88
2022/07/09 06:57:38;;;;;;;20.90;15.00;;;22.90;62.10;;;;;;4977071;28;20211;-89
2022/07/09 07:00:06;;;;;;;14.70;13.33;;;22.80;60.70;;;;;;4978061;28;20192;-88
2022/07/09 07:02:31;;;;;;;15.97;14.10;;;22.80;60.60;;;;;;4976435;28;20239;-89
2022/07/09 07:04:57;;;;;;;14.93;13.30;;;22.90;60.50;;;;;;4975599;28;20473;-88
2022/07/09 07:07:23;;;;;;;26.00;16.93;;;23.00;60.10;;;;;;4976841;28;20180;-88
2022/07/09 07:09:49;;;;;;;19.30;16.03;;;23.00;59.90;;;;;;4976551;28;20420;-88
2022/07/09 07:12:14;;;;;;;16.90;15.07;;;22.80;60.50;;;;;;4976666;28;20219;-88
2022/07/09 07:14:40;;;;;;;21.60;16.23;;;22.90;60.80;;;;;;4977337;28;20576;-89
2022/07/09 07:17:06;;;;;;;19.13;17.03;;;22.90;60.60;;;;;;4976487;28;20203;-88
2022/07/09 07:19:32;;;;;;;22.77;15.97;;;22.80;60.50;;;;;;4961397;28;20208;-89
2022/07/09 07:21:57;;;;;;;17.83;14.80;;;23.00;61.00;;;;;;4976924;28;20183;-88
2022/07/09 07:24:23;;;;;;;19.83;17.43;;;23.30;60.30;;;;;;4977989;28;20270;-89
2022/07/09 07:26:49;;;;;;;18.90;16.73;;;23.60;58.90;;;;;;4977209;28;20222;-89
2022/07/09 07:29:15;;;;;;;19.50;14.50;;;24.10;58.20;;;;;;4976325;28;20229;-90
2022/07/09 07:31:40;;;;;;;15.93;14.30;;;24.30;58.20;;;;;;4976970;28;20268;-90
2022/07/09 07:34:06;;;;;;;21.97;19.63;;;24.40;57.60;;;;;;4975406;28;20418;-91
2022/07/09 07:36:32;;;;;;;21.60;17.60;;;24.60;57.00;;;;;;4975687;28;20196;-90
2022/07/09 07:38:58;;;;;;;23.10;19.90;;;24.60;57.50;;;;;;4976063;28;20226;-91
2022/07/09 07:41:24;;;;;;;21.33;17.47;;;24.20;58.10;;;;;;4976340;28;20963;-91
2022/07/09 07:43:49;;;;;;;18.67;14.87;;;24.00;59.40;;;;;;4976719;28;20950;-90
2022/07/09 07:46:15;;;;;;;23.93;19.37;;;24.30;59.30;;;;;;4976390;28;20177;-90
2022/07/09 07:48:41;;;;;;;24.67;20.67;;;24.10;59.50;;;;;;4977804;28;20204;-90
2022/07/09 07:51:08;;;;;;;26.60;20.87;;;23.90;60.80;;;;;;4983158;28;20181;-90
2022/07/09 07:53:35;;;;;;;24.10;20.23;;;23.60;61.30;;;;;;4976335;28;20485;-90
2022/07/09 07:56:04;;;;;;;34.73;22.30;;;23.50;62.40;;;;;;4975914;28;20784;-89
2022/07/09 07:58:30;;;;;;;25.20;19.90;;;23.50;62.80;;;;;;4979001;28;20451;-91
2022/07/09 08:00:56;;;;;;;20.00;17.90;;;23.50;63.30;;;;;;4995552;28;20436;-92
2022/07/09 08:03:22;;;;;;;25.03;20.67;;;23.60;63.20;;;;;;4979833;28;20431;-91
2022/07/09 08:05:48;;;;;;;22.87;19.93;;;23.80;62.70;;;;;;4976258;28;20188;-91
2022/07/09 08:08:14;;;;;;;25.07;20.17;;;23.90;62.30;;;;;;4978950;28;20210;-91
2022/07/09 08:10:40;;;;;;;24.83;22.17;;;23.90;62.20;;;;;;4976663;28;20855;-90
2022/07/09 08:13:05;;;;;;;22.00;19.40;;;23.90;62.10;;;;;;4977649;28;20493;-90
2022/07/09 08:15:31;;;;;;;21.60;19.30;;;23.90;62.00;;;;;;4973726;28;20507;-92
2022/07/09 08:17:57;;;;;;;23.03;20.50;;;23.70;62.50;;;;;;4977077;28;20560;-93
2022/07/09 08:20:23;;;;;;;20.37;18.20;;;23.50;63.40;;;;;;4977580;28;20250;-92
2022/07/09 08:22:48;;;;;;;28.93;22.33;;;23.50;63.80;;;;;;4978548;28;20180;-89
2022/07/09 08:25:14;;;;;;;24.70;19.23;;;23.50;63.60;;;;;;4978732;28;20190;-88
2022/07/09 08:27:40;;;;;;;19.90;15.70;;;23.40;64.50;;;;;;4979012;28;20576;-88
2022/07/09 08:30:07;;;;;;;21.43;17.70;;;23.50;64.10;;;;;;4978911;28;20473;-91
2022/07/09 08:32:33;;;;;;;21.23;18.00;;;23.80;62.70;;;;;;4978322;28;20474;-91
2022/07/09 08:34:58;;;;;;;22.83;15.60;;;24.20;62.20;;;;;;4978538;28;20427;-90
2022/07/09 08:37:24;;;;;;;20.13;17.07;;;24.60;61.10;;;;;;4977541;28;20699;-89
2022/07/09 08:39:50;;;;;;;15.73;14.03;;;24.80;59.20;;;;;;4982142;28;20210;-90
2022/07/09 08:42:16;;;;;;;20.20;16.70;;;24.70;60.00;;;;;;4982842;28;20610;-89
2022/07/09 08:44:46;;;;;;;18.27;15.57;;;24.60;60.30;;;;;;4979202;28;20184;-89
2022/07/09 08:47:13;;;;;;;18.73;16.67;;;24.30;61.20;;;;;;4979514;28;20423;-89
2022/07/09 08:49:40;;;;;;;17.30;15.50;;;24.00;62.70;;;;;;4979541;28;20444;-89
2022/07/09 08:52:07;;;;;;;15.87;14.33;;;24.00;63.00;;;;;;4980230;28;20501;-90
2022/07/09 08:54:33;;;;;;;15.40;13.70;;;24.20;61.70;;;;;;4979435;28;20420;-91
2022/07/09 08:56:59;;;;;;;14.33;12.63;;;23.90;63.00;;;;;;4978617;28;20455;-89
2022/07/09 08:59:25;;;;;;;20.23;15.20;;;23.70;63.60;;;;;;4981306;28;20445;-90
2022/07/09 09:01:50;;;;;;;14.83;13.30;;;23.80;63.40;;;;;;4979419;28;20414;-90
2022/07/09 09:04:17;;;;;;;15.63;11.87;;;23.80;63.80;;;;;;4963291;28;20184;-89
2022/07/09 09:06:43;;;;;;;14.90;13.30;;;24.00;62.30;;;;;;4979559;28;20176;-91
2022/07/09 09:09:10;;;;;;;12.13;10.90;;;24.30;61.20;;;;;;4978550;28;20552;-92
2022/07/09 09:11:37;;;;;;;10.80;9.70;;;24.30;61.40;;;;;;4979218;28;20180;-90
2022/07/09 09:14:05;;;;;;;10.23;9.33;;;24.30;60.90;;;;;;4978771;28;21097;-90
2022/07/09 09:16:30;;;;;;;16.90;11.73;;;24.60;60.30;;;;;;4980698;28;20464;-90
2022/07/09 09:18:56;;;;;;;13.90;10.50;;;24.40;59.00;;;;;;4979635;28;20868;-90
2022/07/09 09:21:27;;;;;;;13.67;9.90;;;24.30;59.90;;;;;;4978451;28;20192;-90
2022/07/09 09:23:55;;;;;;;10.70;9.77;;;24.50;60.10;;;;;;4979766;28;20183;-91
2022/07/09 09:26:27;;;;;;;12.23;9.30;;;24.60;59.90;;;;;;4979373;28;20564;-90
2022/07/09 09:28:57;;;;;;;11.50;8.93;;;24.50;59.70;;;;;;4978241;28;20509;-90
2022/07/09 09:31:24;;;;;;;9.47;8.60;;;24.30;59.20;;;;;;4979815;28;20788;-90
2022/07/09 09:33:51;;;;;;;13.20;9.10;;;24.00;59.90;;;;;;4965946;28;20436;-90
2022/07/09 09:36:34;;;;;;;8.33;7.53;;;24.10;60.40;;;;;;4979659;28;20933;-90
2022/07/09 09:39:23;;;;;;;10.70;7.33;;;24.30;60.10;;;;;;4977976;28;20464;-90
2022/07/09 09:42:08;;;;;;;7.70;6.83;;;24.30;59.30;;;;;;4977670;28;20558;-90
2022/07/09 09:44:40;;;;;;;9.50;7.03;;;24.10;59.70;;;;;;4977659;28;20400;-90
2022/07/09 09:47:07;;;;;;;7.90;6.80;;;24.20;59.40;;;;;;4982656;28;20380;-92
2022/07/09 09:49:36;;;;;;;17.50;7.87;;;24.00;59.70;;;;;;5001456;28;20477;-91
2022/07/09 09:52:10;;;;;;;6.83;5.80;;;23.90;60.20;;;;;;4983131;28;20421;-90
2022/07/09 09:54:38;;;;;;;5.63;4.70;;;23.80;61.00;;;;;;4965079;28;20803;-90
2022/07/09 09:57:09;;;;;;;8.07;4.03;;;23.80;61.10;;;;;;4981328;28;20527;-90
2022/07/09 09:59:39;;;;;;;6.37;4.10;;;23.90;61.40;;;;;;4981292;28;20435;-91
2022/07/09 10:02:06;;;;;;;10.03;4.70;;;24.10;60.70;;;;;;4981555;28;20431;-91
2022/07/09 10:04:36;;;;;;;8.60;4.10;;;24.00;60.20;;;;;;4981852;28;20452;-90
2022/07/09 10:07:03;;;;;;;6.20;4.60;;;24.00;60.10;;;;;;4990128;28;20411;-92
2022/07/09 10:09:28;;;;;;;6.03;4.77;;;23.90;59.80;;;;;;4994351;28;20457;-91
2022/07/09 10:11:54;;;;;;;7.00;5.00;;;23.90;59.40;;;;;;4995846;28;20412;-91
2022/07/09 10:14:23;;;;;;;5.50;3.90;;;23.80;60.50;;;;;;4982324;28;20192;-91
2022/07/09 10:16:49;;;;;;;5.60;3.70;;;23.80;60.10;;;;;;4981750;28;20211;-91
2022/07/09 10:19:29;;;;;;;3.60;3.23;;;23.80;59.70;;;;;;4981848;28;20431;-89
2022/07/09 10:21:59;;;;;;;7.23;3.17;;;23.90;59.60;;;;;;4982799;28;20526;-89
2022/07/09 10:24:37;;;;;;;3.77;3.00;;;23.90;59.20;;;;;;4982941;28;20499;-90
2022/07/09 10:27:10;;;;;;;4.90;2.70;;;23.80;58.00;;;;;;4970809;28;20419;-91
2022/07/09 10:29:57;;;;;;;2.37;2.17;;;23.50;58.80;;;;;;4984595;28;20447;-90
2022/07/09 10:32:30;;;;;;;2.57;2.37;;;23.50;59.10;;;;;;4991790;28;20511;-91
2022/07/09 10:35:00;;;;;;;4.33;2.80;;;23.30;59.10;;;;;;4994342;28;20408;-91
2022/07/09 10:37:42;;;;;;;2.47;2.10;;;23.60;58.70;;;;;;4986888;28;20451;-90
2022/07/09 10:40:15;;;;;;;4.87;3.13;;;23.50;57.80;;;;;;4984431;28;20423;-90
2022/07/09 10:42:42;;;;;;;3.60;2.67;;;23.30;58.00;;;;;;4987568;28;20409;-92
2022/07/09 10:45:22;;;;;;;3.50;2.60;;;23.20;59.20;;;;;;4983213;28;20953;-91
2022/07/09 10:47:59;;;;;;;8.30;2.97;;;23.30;59.00;;;;;;4960122;28;20459;-90
2022/07/09 10:50:27;;;;;;;6.23;1.93;;;23.40;58.20;;;;;;4978683;28;20495;-90
2022/07/09 10:52:53;;;;;;;4.13;1.80;;;23.50;58.20;;;;;;4976659;28;20443;-90
2022/07/09 10:55:21;;;;;;;2.03;1.67;;;23.40;57.40;;;;;;4959389;28;20439;-91
2022/07/09 10:57:47;;;;;;;2.90;2.40;;;23.70;56.00;;;;;;4975803;28;20467;-91
2022/07/09 11:00:18;;;;;;;2.43;1.70;;;23.70;55.80;;;;;;4975765;28;20783;-90
2022/07/09 11:02:54;;;;;;;2.80;1.90;;;23.70;56.00;;;;;;4975133;28;20411;-91
2022/07/09 11:05:20;;;;;;;3.10;2.23;;;23.60;55.40;;;;;;4974878;28;20423;-88
2022/07/09 11:07:58;;;;;;;2.53;1.80;;;23.50;56.60;;;;;;4975794;28;20439;-90
2022/07/09 11:10:26;;;;;;;5.20;1.90;;;23.70;57.70;;;;;;4977330;28;20426;-91
2022/07/09 11:12:52;;;;;;;2.70;1.90;;;23.70;57.20;;;;;;4974488;28;20434;-90
2022/07/09 11:15:20;;;;;;;3.30;1.60;;;23.80;56.80;;;;;;4974169;28;20416;-90
2022/07/09 11:17:59;;;;;;;2.20;2.00;;;23.80;56.70;;;;;;4974296;28;20215;-90
2022/07/09 11:20:26;;;;;;;1.70;1.60;;;23.70;56.70;;;;;;4976971;28;20435;-90
2022/07/09 11:22:52;;;;;;;4.60;2.00;;;23.70;57.30;;;;;;4976370;28;20411;-90
2022/07/09 11:25:18;;;;;;;3.50;1.60;;;23.70;56.80;;;;;;4975621;28;20511;-90
2022/07/09 11:27:44;;;;;;;2.57;1.10;;;23.80;57.10;;;;;;4975606;28;20466;-91
2022/07/09 11:30:14;;;;;;;3.10;1.57;;;23.80;56.70;;;;;;4959706;28;20816;-90
2022/07/09 11:32:44;;;;;;;3.40;1.70;;;24.00;55.60;;;;;;4975722;28;20480;-90
2022/07/09 11:35:11;;;;;;;2.17;1.83;;;24.30;55.20;;;;;;4980736;28;20424;-88
2022/07/09 11:37:37;;;;;;;1.77;1.67;;;24.50;53.90;;;;;;4996358;28;20538;-94
2022/07/09 11:40:05;;;;;;;6.20;1.40;;;24.50;52.20;;;;;;4988916;28;20431;-92
2022/07/09 11:42:31;;;;;;;3.20;1.70;;;24.20;52.40;;;;;;4977592;28;20442;-91
2022/07/09 11:44:59;;;;;;;2.27;1.70;;;23.90;52.70;;;;;;4976054;28;20419;-92
2022/07/09 11:47:36;;;;;;;2.07;1.80;;;23.70;53.40;;;;;;4977668;28;20934;-92
2022/07/09 11:50:18;;;;;;;2.23;1.73;;;23.30;54.10;;;;;;4977631;28;20410;-91
2022/07/09 11:52:48;;;;;;;2.00;1.80;;;23.30;55.00;;;;;;4960843;28;20446;-89
2022/07/09 11:55:19;;;;;;;4.30;1.90;;;23.20;54.60;;;;;;4976756;28;20434;-90
2022/07/09 11:57:57;;;;;;;2.00;1.60;;;23.20;55.20;;;;;;4961618;28;20482;-89
2022/07/09 12:00:29;;;;;;;8.43;2.17;;;23.20;55.60;;;;;;4976178;28;20419;-90
2022/07/09 12:02:56;;;;;;;2.70;1.60;;;23.30;55.80;;;;;;4977203;28;20419;-90
2022/07/09 12:05:39;;;;;;;5.47;1.60;;;23.30;55.00;;;;;;4976305;28;21090;-90
2022/07/09 12:08:06;;;;;;;4.80;1.40;;;23.50;53.20;;;;;;4976824;28;20864;-90
2022/07/09 12:10:35;;;;;;;4.37;1.60;;;23.20;52.30;;;;;;4976809;28;20423;-90
2022/07/09 12:13:04;;;;;;;2.07;1.20;;;23.00;53.70;;;;;;4976336;28;20807;-91
2022/07/09 12:15:30;;;;;;;3.40;1.63;;;22.90;53.60;;;;;;4976218;28;20415;-91
2022/07/09 12:17:59;;;;;;;1.70;1.53;;;22.90;53.70;;;;;;4974950;28;20467;-90
2022/07/09 12:20:27;;;;;;;2.00;1.60;;;22.90;52.40;;;;;;4974825;28;20793;-90
2022/07/09 12:22:53;;;;;;;2.57;1.50;;;23.20;50.20;;;;;;4975889;28;20419;-91
2022/07/09 12:25:20;;;;;;;1.77;1.50;;;23.20;49.70;;;;;;4976631;28;20777;-90
2022/07/09 12:27:46;;;;;;;3.30;1.53;;;23.10;50.50;;;;;;4974954;28;20447;-90
2022/07/09 12:30:12;;;;;;;1.77;1.30;;;23.10;51.10;;;;;;4978318;28;20445;-89
2022/07/09 12:32:39;;;;;;;2.37;1.50;;;23.10;50.20;;;;;;4978228;28;20462;-89